createdAt,value
2019-05-05T00:00:16.244Z,92.01
2019-05-05T00:02:49.173Z,92.03
2019-05-05T00:05:19.477Z,92.11
2019-05-05T00:07:48.081Z,92.11
2019-05-05T00:10:18.378Z,91.83
2019-05-05T00:12:55.117Z,91.86
2019-05-05T00:15:40.507Z,91.59
2019-05-05T00:18:09.165Z,91.79
2019-05-05T00:20:37.747Z,92.36
2019-05-05T00:23:06.406Z,92.50
2019-05-05T00:25:34.992Z,92.62
2019-05-05T00:28:05.000Z,92.56
2019-05-05T00:30:34.339Z,92.65
2019-05-05T00:33:06.231Z,92.58
2019-05-05T00:35:34.862Z,92.61
2019-05-05T00:38:05.086Z,92.62
2019-05-05T00:40:35.312Z,92.56
2019-05-05T00:43:05.356Z,92.42
2019-05-05T00:45:34.985Z,92.30
2019-05-05T00:48:11.168Z,92.33
2019-05-05T00:50:39.779Z,92.33
2019-05-05T00:53:08.447Z,92.48
2019-05-05T00:55:37.052Z,92.45
2019-05-05T00:58:05.610Z,92.53
2019-05-05T01:00:50.952Z,92.42
2019-05-05T01:03:21.182Z,92.44
2019-05-05T01:05:55.324Z,92.44
2019-05-05T01:08:27.417Z,92.74
2019-05-05T01:10:56.037Z,93.89
2019-05-05T01:13:24.697Z,93.67
2019-05-05T01:15:54.232Z,93.78
2019-05-05T01:18:24.547Z,93.88
2019-05-05T01:20:55.063Z,93.91
2019-05-05T01:23:24.395Z,94.10
2019-05-05T01:25:54.409Z,94.13
2019-05-05T01:28:24.909Z,94.73
2019-05-05T01:30:55.423Z,95.84
2019-05-05T01:33:31.128Z,96.45
2019-05-05T01:35:59.762Z,97.00
2019-05-05T01:38:44.952Z,97.92
2019-05-05T01:41:30.268Z,97.34
2019-05-05T01:43:58.854Z,97.44
2019-05-05T01:46:27.485Z,97.16
2019-05-05T01:48:56.050Z,97.17
2019-05-05T01:51:24.874Z,96.77
2019-05-05T01:53:54.538Z,96.66
2019-05-05T01:56:24.666Z,96.78
2019-05-05T01:58:54.768Z,96.88
2019-05-05T02:01:24.651Z,96.96
2019-05-05T02:03:54.896Z,96.71
2019-05-05T02:06:24.789Z,96.46
2019-05-05T02:08:54.787Z,96.35
2019-05-05T02:11:24.697Z,96.26
2019-05-05T02:13:54.584Z,96.45
2019-05-05T02:16:25.409Z,96.73
2019-05-05T02:18:54.486Z,96.77
2019-05-05T02:21:24.725Z,96.73
2019-05-05T02:23:54.731Z,96.45
2019-05-05T02:26:24.548Z,96.50
2019-05-05T02:29:00.879Z,96.91
2019-05-05T02:31:31.090Z,97.07
2019-05-05T02:33:59.739Z,96.49
2019-05-05T02:36:28.358Z,96.09
2019-05-05T02:38:57.022Z,95.77
2019-05-05T02:41:25.893Z,95.89
2019-05-05T02:43:55.958Z,95.76
2019-05-05T02:46:27.074Z,95.51
2019-05-05T02:48:57.852Z,95.55
2019-05-05T02:51:27.811Z,95.73
2019-05-05T02:53:58.766Z,95.56
2019-05-05T02:56:34.089Z,95.43
2019-05-05T02:59:06.151Z,95.37
2019-05-05T03:01:44.646Z,95.41
2019-05-05T03:04:14.189Z,96.28
2019-05-05T03:06:45.928Z,96.38
2019-05-05T03:09:15.082Z,96.44
2019-05-05T03:11:45.942Z,96.53
2019-05-05T03:14:15.702Z,96.34
2019-05-05T03:16:44.476Z,96.51
2019-05-05T03:19:14.211Z,96.62
2019-05-05T03:21:44.185Z,96.98
2019-05-05T03:24:14.353Z,96.34
2019-05-05T03:26:44.416Z,96.43
2019-05-05T03:29:14.913Z,96.29
2019-05-05T03:31:45.914Z,95.95
2019-05-05T03:34:16.433Z,95.82
2019-05-05T03:36:44.985Z,95.76
2019-05-05T03:39:15.193Z,95.44
2019-05-05T03:41:45.510Z,95.34
2019-05-05T03:44:15.925Z,95.42
2019-05-05T03:46:45.906Z,95.13
2019-05-05T03:49:14.528Z,95.07
2019-05-05T03:51:44.000Z,95.32
2019-05-05T03:54:14.668Z,95.62
2019-05-05T03:56:44.288Z,96.10
2019-05-05T03:59:14.164Z,96.04
2019-05-05T04:01:50.907Z,96.30
2019-05-05T04:04:27.270Z,96.56
2019-05-05T04:06:57.786Z,96.66
2019-05-05T04:09:26.697Z,96.51
2019-05-05T04:11:55.278Z,96.58
2019-05-05T04:14:25.042Z,96.83
2019-05-05T04:17:13.950Z,96.63
2019-05-05T04:19:43.965Z,96.96
2019-05-05T04:22:13.525Z,97.17
2019-05-05T04:24:43.540Z,97.23
2019-05-05T04:27:14.388Z,97.83
2019-05-05T04:29:43.926Z,97.96
2019-05-05T04:32:14.002Z,98.20
2019-05-05T04:34:43.932Z,98.42
2019-05-05T04:37:14.644Z,98.09
2019-05-05T04:39:44.434Z,98.02
2019-05-05T04:42:14.064Z,97.94
2019-05-05T04:44:44.951Z,98.11
2019-05-05T04:47:14.730Z,98.10
2019-05-05T04:49:47.688Z,97.41
2019-05-05T04:52:17.889Z,97.07
2019-05-05T04:54:48.099Z,96.97
2019-05-05T04:57:16.686Z,97.20
2019-05-05T04:59:46.224Z,97.01
2019-05-05T05:02:34.147Z,96.59
2019-05-05T05:05:16.515Z,96.36
2019-05-05T05:07:45.148Z,96.35
2019-05-05T05:10:14.005Z,96.18
2019-05-05T05:12:43.592Z,96.32
2019-05-05T05:15:14.433Z,96.33
2019-05-05T05:17:44.533Z,96.15
2019-05-05T05:20:14.154Z,96.25
2019-05-05T05:22:43.968Z,96.03
2019-05-05T05:25:13.614Z,95.97
2019-05-05T05:27:44.159Z,95.82
2019-05-05T05:30:13.716Z,94.87
2019-05-05T05:32:44.326Z,94.30
2019-05-05T05:35:14.073Z,94.71
2019-05-05T05:37:44.833Z,94.61
2019-05-05T05:40:20.586Z,94.76
2019-05-05T05:42:49.151Z,94.03
2019-05-05T05:45:23.753Z,93.46
2019-05-05T05:47:56.758Z,93.00
2019-05-05T05:50:45.350Z,93.05
2019-05-05T05:53:14.113Z,93.16
2019-05-05T05:55:44.658Z,93.22
2019-05-05T05:58:14.083Z,93.51
2019-05-05T06:00:44.271Z,93.45
2019-05-05T06:03:14.059Z,92.81
2019-05-05T06:05:43.607Z,92.88
2019-05-05T06:08:14.149Z,92.50
2019-05-05T06:10:44.282Z,92.42
2019-05-05T06:13:15.302Z,92.33
2019-05-05T06:15:44.360Z,92.30
2019-05-05T06:18:13.852Z,91.83
2019-05-05T06:20:44.569Z,91.69
2019-05-05T06:23:14.676Z,91.64
2019-05-05T06:25:44.470Z,91.56
2019-05-05T06:28:14.512Z,90.95
2019-05-05T06:30:44.285Z,91.46
2019-05-05T06:33:13.815Z,91.55
2019-05-05T06:35:44.280Z,91.63
2019-05-05T06:38:13.590Z,91.73
2019-05-05T06:40:44.477Z,91.68
2019-05-05T06:43:29.973Z,91.60
2019-05-05T06:46:06.413Z,91.80
2019-05-05T06:48:35.067Z,91.30
2019-05-05T06:51:04.030Z,91.64
2019-05-05T06:53:34.163Z,91.38
2019-05-05T06:56:04.067Z,91.05
2019-05-05T06:58:34.567Z,91.23
2019-05-05T07:01:03.610Z,90.68
2019-05-05T07:03:33.657Z,90.11
2019-05-05T07:06:04.259Z,90.73
2019-05-05T07:08:34.776Z,89.85
2019-05-05T07:11:04.074Z,89.09
2019-05-05T07:13:33.905Z,89.24
2019-05-05T07:16:04.719Z,89.01
2019-05-05T07:18:34.128Z,88.74
2019-05-05T07:21:03.683Z,88.76
2019-05-05T07:23:34.118Z,88.37
2019-05-05T07:26:04.101Z,87.82
2019-05-05T07:28:34.197Z,87.49
2019-05-05T07:31:04.386Z,86.99
2019-05-05T07:33:34.594Z,86.35
2019-05-05T07:36:16.894Z,86.02
2019-05-05T07:38:47.098Z,84.76
2019-05-05T07:41:15.670Z,84.72
2019-05-05T07:43:44.241Z,83.70
2019-05-05T07:46:13.551Z,82.05
2019-05-05T07:48:44.205Z,80.13
2019-05-05T07:51:14.160Z,77.29
2019-05-05T07:53:44.245Z,76.37
2019-05-05T07:56:15.858Z,74.51
2019-05-05T07:58:44.465Z,73.02
2019-05-05T08:01:14.059Z,71.58
2019-05-05T08:03:44.664Z,70.02
2019-05-05T08:06:14.477Z,67.99
2019-05-05T08:08:44.291Z,67.67
2019-05-05T08:11:14.745Z,66.50
2019-05-05T08:13:44.342Z,66.18
2019-05-05T08:16:20.482Z,66.14
2019-05-05T08:19:08.737Z,67.04
2019-05-05T08:21:37.578Z,68.40
2019-05-05T08:24:10.614Z,68.19
2019-05-05T08:26:40.804Z,69.42
2019-05-05T08:29:27.155Z,69.43
2019-05-05T08:31:57.393Z,69.52
2019-05-05T08:34:25.995Z,70.45
2019-05-05T08:36:54.600Z,70.62
2019-05-05T08:39:24.373Z,70.69
2019-05-05T08:41:53.837Z,70.64
2019-05-05T08:44:23.627Z,67.87
2019-05-05T08:46:53.744Z,65.68
2019-05-05T08:49:24.441Z,64.00
2019-05-05T08:51:54.686Z,63.26
2019-05-05T08:54:23.646Z,62.76
2019-05-05T08:56:52.228Z,63.42
2019-05-05T08:59:20.865Z,61.09
2019-05-05T09:01:49.472Z,61.16
2019-05-05T09:04:18.047Z,60.39
2019-05-05T09:06:46.859Z,58.14
2019-05-05T09:09:15.435Z,58.01
2019-05-05T09:11:44.034Z,55.36
2019-05-05T09:14:14.655Z,53.88
2019-05-05T09:16:44.770Z,52.29
2019-05-05T09:19:18.098Z,50.47
2019-05-05T09:21:46.768Z,49.09
2019-05-05T09:24:34.117Z,49.58
2019-05-05T09:27:14.147Z,50.31
2019-05-05T09:29:46.164Z,51.10
2019-05-05T09:32:14.736Z,51.27
2019-05-05T09:34:43.712Z,51.50
2019-05-05T09:37:14.353Z,52.42
2019-05-05T09:39:43.807Z,53.62
2019-05-05T09:42:14.508Z,54.99
2019-05-05T09:44:43.793Z,56.89
2019-05-05T09:47:13.675Z,58.03
2019-05-05T09:49:44.339Z,60.57
2019-05-05T09:52:14.013Z,62.60
2019-05-05T09:54:43.878Z,63.89
2019-05-05T09:57:14.566Z,65.06
2019-05-05T09:59:44.088Z,65.49
2019-05-05T10:02:13.178Z,65.95
2019-05-05T10:04:43.907Z,67.65
2019-05-05T10:07:13.736Z,67.60
2019-05-05T10:09:43.750Z,67.79
2019-05-05T10:12:12.557Z,68.23
2019-05-05T10:14:41.131Z,68.73
2019-05-05T10:17:09.707Z,70.14
2019-05-05T10:19:38.276Z,70.60
2019-05-05T10:22:06.852Z,71.58
2019-05-05T10:24:37.005Z,70.47
2019-05-05T10:27:05.653Z,71.12
2019-05-05T10:29:34.219Z,72.10
2019-05-05T10:32:04.550Z,70.82
2019-05-05T10:34:33.543Z,70.18
2019-05-05T10:37:04.160Z,70.52
2019-05-05T10:39:37.128Z,68.50
2019-05-05T10:42:05.699Z,66.46
2019-05-05T10:44:34.353Z,65.37
2019-05-05T10:47:04.586Z,63.94
2019-05-05T10:49:33.801Z,63.02
2019-05-05T10:52:03.767Z,62.33
2019-05-05T10:54:43.855Z,61.56
2019-05-05T10:57:03.994Z,62.90
2019-05-05T10:59:34.363Z,60.82
2019-05-05T11:02:04.930Z,58.21
2019-05-05T11:04:33.805Z,55.48
2019-05-05T11:07:04.241Z,54.14
2019-05-05T11:09:34.006Z,52.01
2019-05-05T11:12:02.673Z,52.84
2019-05-05T11:14:31.284Z,50.47
2019-05-05T11:17:00.155Z,48.33
2019-05-05T11:19:28.839Z,47.08
2019-05-05T11:21:57.527Z,46.16
2019-05-05T11:24:26.101Z,46.51
2019-05-05T11:26:55.070Z,45.09
2019-05-05T11:29:24.162Z,45.11
2019-05-05T11:31:53.845Z,45.22
2019-05-05T11:34:24.742Z,49.13
2019-05-05T11:37:07.110Z,52.97
2019-05-05T11:39:35.722Z,55.04
2019-05-05T11:42:04.563Z,57.63
2019-05-05T11:44:33.637Z,59.43
2019-05-05T11:47:03.696Z,60.82
2019-05-05T11:49:33.720Z,62.57
2019-05-05T11:52:04.634Z,63.73
2019-05-05T11:54:34.565Z,64.55
2019-05-05T11:57:05.185Z,65.03
2019-05-05T11:59:34.902Z,66.42
2019-05-05T12:02:04.578Z,66.94
2019-05-05T12:04:34.831Z,65.23
2019-05-05T12:07:04.997Z,66.20
2019-05-05T12:09:36.049Z,65.95
2019-05-05T12:12:05.147Z,63.62
2019-05-05T12:14:33.952Z,63.63
2019-05-05T12:17:04.575Z,63.12
2019-05-05T12:19:33.699Z,65.07
2019-05-05T12:22:02.806Z,61.81
2019-05-05T12:24:34.054Z,61.50
2019-05-05T12:27:06.025Z,58.02
2019-05-05T12:29:36.857Z,56.46
2019-05-05T12:32:06.164Z,55.94
2019-05-05T12:34:34.969Z,52.82
2019-05-05T12:37:07.241Z,53.14
2019-05-05T12:39:36.147Z,51.58
2019-05-05T12:42:05.189Z,51.19
2019-05-05T12:44:36.310Z,50.34
2019-05-05T12:47:16.047Z,49.52
2019-05-05T12:49:44.898Z,50.08
2019-05-05T12:52:14.001Z,49.50
2019-05-05T12:54:44.053Z,48.19
2019-05-05T12:57:13.665Z,49.35
2019-05-05T12:59:44.388Z,49.12
2019-05-05T13:02:14.262Z,47.04
2019-05-05T13:04:42.998Z,48.38
2019-05-05T13:07:13.635Z,46.65
2019-05-05T13:09:44.129Z,45.97
2019-05-05T13:12:15.055Z,47.91
2019-05-05T13:14:43.964Z,45.73
2019-05-05T13:17:14.209Z,45.06
2019-05-05T13:19:52.129Z,44.54
2019-05-05T13:22:25.397Z,45.08
2019-05-05T13:24:54.906Z,43.20
2019-05-05T13:27:37.476Z,43.62
2019-05-05T13:30:08.932Z,43.19
2019-05-05T13:32:37.539Z,43.33
2019-05-05T13:35:07.876Z,42.83
2019-05-05T13:37:36.531Z,43.11
2019-05-05T13:40:06.967Z,44.07
2019-05-05T13:42:35.638Z,44.31
2019-05-05T13:45:26.449Z,44.90
2019-05-05T13:47:55.119Z,44.96
2019-05-05T13:50:37.575Z,44.33
2019-05-05T13:53:06.216Z,45.02
2019-05-05T13:55:34.862Z,44.85
2019-05-05T13:58:03.994Z,45.12
2019-05-05T14:00:33.774Z,44.74
2019-05-05T14:03:03.875Z,44.29
2019-05-05T14:05:34.399Z,43.73
2019-05-05T14:08:04.178Z,44.36
2019-05-05T14:10:32.948Z,44.47
2019-05-05T14:13:03.549Z,44.88
2019-05-05T14:15:33.991Z,46.20
2019-05-05T14:18:03.793Z,47.72
2019-05-05T14:20:34.491Z,48.17
2019-05-05T14:23:03.895Z,48.49
2019-05-05T14:25:33.456Z,48.63
2019-05-05T14:28:03.697Z,49.10
2019-05-05T14:30:47.597Z,50.37
2019-05-05T14:33:18.396Z,51.01
2019-05-05T14:35:57.664Z,50.66
2019-05-05T14:39:21.325Z,49.52
2019-05-05T14:41:51.190Z,48.79
2019-05-05T14:44:21.049Z,48.04
2019-05-05T14:46:51.378Z,47.53
2019-05-05T14:49:21.062Z,49.05
2019-05-05T14:51:49.788Z,47.10
2019-05-05T14:54:18.485Z,47.11
2019-05-05T14:56:47.403Z,46.77
2019-05-05T14:59:17.212Z,46.56
2019-05-05T15:01:46.756Z,45.98
2019-05-05T15:04:18.924Z,47.57
2019-05-05T15:06:49.924Z,47.38
2019-05-05T15:09:29.951Z,47.86
2019-05-05T15:12:00.209Z,47.51
2019-05-05T15:14:28.855Z,48.53
2019-05-05T15:16:57.483Z,48.09
2019-05-05T15:19:26.082Z,48.78
2019-05-05T15:21:54.650Z,49.49
2019-05-05T15:24:24.426Z,49.64
2019-05-05T15:26:55.007Z,49.55
2019-05-05T15:29:25.186Z,49.37
2019-05-05T15:31:54.014Z,49.97
2019-05-05T15:34:24.054Z,49.79
2019-05-05T15:36:54.732Z,49.34
2019-05-05T15:39:24.610Z,49.43
2019-05-05T15:41:54.242Z,49.68
2019-05-05T15:44:24.093Z,50.56
2019-05-05T15:46:57.347Z,50.45
2019-05-05T15:49:23.533Z,50.20
2019-05-05T15:51:53.942Z,50.55
2019-05-05T15:54:23.643Z,50.89
2019-05-05T15:57:02.959Z,50.59
2019-05-05T15:59:23.949Z,51.27
2019-05-05T16:01:54.710Z,51.85
2019-05-05T16:04:23.625Z,51.90
2019-05-05T16:06:54.038Z,52.23
2019-05-05T16:09:22.819Z,52.63
2019-05-05T16:11:51.555Z,52.82
2019-05-05T16:14:20.953Z,52.86
2019-05-05T16:16:56.056Z,53.81
2019-05-05T16:19:35.651Z,53.87
2019-05-05T16:22:05.893Z,53.45
2019-05-05T16:24:36.710Z,53.29
2019-05-05T16:27:18.358Z,53.01
2019-05-05T16:29:35.785Z,53.25
2019-05-05T16:32:17.917Z,53.11
2019-05-05T16:34:35.188Z,52.74
2019-05-05T16:37:04.045Z,53.36
2019-05-05T16:39:33.539Z,53.51
2019-05-05T16:42:02.276Z,53.63
2019-05-05T16:44:30.849Z,53.90
2019-05-05T16:46:59.708Z,54.48
2019-05-05T16:49:28.539Z,54.41
2019-05-05T16:52:03.908Z,54.48
2019-05-05T16:54:33.998Z,54.30
2019-05-05T16:57:03.982Z,54.33
2019-05-05T16:59:34.069Z,54.75
2019-05-05T17:02:04.736Z,55.10
2019-05-05T17:04:35.516Z,55.84
2019-05-05T17:07:04.076Z,57.22
2019-05-05T17:09:34.437Z,58.00
2019-05-05T17:12:09.356Z,58.59
2019-05-05T17:14:40.453Z,59.07
2019-05-05T17:17:29.430Z,59.81
2019-05-05T17:19:59.652Z,59.74
2019-05-05T17:22:29.870Z,60.03
2019-05-05T17:24:59.410Z,59.71
2019-05-05T17:27:27.993Z,59.68
2019-05-05T17:29:56.684Z,59.45
2019-05-05T17:32:25.290Z,59.89
2019-05-05T17:34:54.227Z,58.96
2019-05-05T17:37:23.903Z,58.70
2019-05-05T17:39:54.672Z,58.74
2019-05-05T17:42:34.792Z,58.71
2019-05-05T17:45:17.468Z,57.93
2019-05-05T17:48:06.108Z,58.32
2019-05-05T17:50:54.766Z,58.20
2019-05-05T17:53:27.854Z,58.28
2019-05-05T17:55:58.076Z,58.53
2019-05-05T17:58:27.682Z,59.36
2019-05-05T18:00:58.003Z,59.50
2019-05-05T18:03:26.733Z,59.17
2019-05-05T18:06:06.057Z,59.41
2019-05-05T18:08:39.100Z,59.60
2019-05-05T18:11:18.206Z,60.09
2019-05-05T18:13:54.392Z,59.73
2019-05-05T18:16:26.930Z,60.52
2019-05-05T18:18:56.115Z,60.84
2019-05-05T18:21:30.365Z,60.91
2019-05-05T18:23:57.662Z,61.14
2019-05-05T18:26:26.265Z,61.48
2019-05-05T18:28:54.915Z,61.80
2019-05-05T18:31:24.294Z,62.47
2019-05-05T18:33:54.318Z,63.07
2019-05-05T18:36:24.828Z,62.88
2019-05-05T18:38:54.500Z,63.56
2019-05-05T18:41:40.969Z,63.87
2019-05-05T18:44:17.058Z,63.95
2019-05-05T18:46:47.449Z,64.27
2019-05-05T18:49:16.818Z,64.20
2019-05-05T18:51:45.491Z,64.45
2019-05-05T18:54:14.826Z,64.77
2019-05-05T18:56:45.417Z,64.88
2019-05-05T18:59:15.063Z,65.25
2019-05-05T19:01:45.641Z,65.24
2019-05-05T19:04:16.129Z,65.64
2019-05-05T19:06:46.676Z,66.31
2019-05-05T19:09:17.057Z,66.09
2019-05-05T19:11:46.264Z,66.59
2019-05-05T19:14:15.733Z,66.73
2019-05-05T19:16:45.753Z,67.42
2019-05-05T19:19:16.655Z,67.36
2019-05-05T19:22:22.025Z,67.29
2019-05-05T19:24:51.864Z,67.65
2019-05-05T19:27:21.653Z,67.44
2019-05-05T19:29:53.496Z,67.47
2019-05-05T19:32:23.373Z,67.56
2019-05-05T19:34:54.365Z,67.58
2019-05-05T19:37:24.020Z,67.56
2019-05-05T19:39:53.043Z,67.74
2019-05-05T19:42:23.978Z,67.88
2019-05-05T19:44:54.450Z,68.12
2019-05-05T19:47:24.738Z,68.26
2019-05-05T19:49:55.982Z,68.09
2019-05-05T19:52:25.683Z,68.21
2019-05-05T19:54:55.464Z,68.32
2019-05-05T19:57:25.488Z,68.51
2019-05-05T19:59:55.665Z,68.64
2019-05-05T20:05:46.631Z,68.92
2019-05-05T20:08:15.597Z,68.79
2019-05-05T20:10:45.319Z,68.98
2019-05-05T20:13:14.783Z,69.33
2019-05-05T20:15:53.760Z,69.49
2019-05-05T20:18:24.902Z,69.55
2019-05-05T20:21:03.655Z,69.74
2019-05-05T20:23:24.517Z,70.07
2019-05-05T20:25:53.792Z,70.28
2019-05-05T20:28:24.125Z,70.58
2019-05-05T20:30:54.106Z,70.60
2019-05-05T20:33:27.453Z,70.97
2019-05-05T20:36:03.803Z,71.06
2019-05-05T20:38:34.033Z,71.45
2019-05-05T20:41:10.192Z,71.46
2019-05-05T20:43:38.765Z,71.95
2019-05-05T20:46:07.542Z,72.20
2019-05-05T20:48:36.211Z,72.39
2019-05-05T20:51:05.238Z,72.72
2019-05-05T20:53:34.432Z,72.92
2019-05-05T20:56:04.278Z,73.04
2019-05-05T20:58:33.715Z,73.30
2019-05-05T21:01:04.670Z,73.29
2019-05-05T21:03:34.698Z,73.70
2019-05-05T21:06:04.461Z,73.49
2019-05-05T21:08:34.844Z,73.71
2019-05-05T21:11:04.431Z,73.76
2019-05-05T21:13:34.201Z,73.67
2019-05-05T21:16:03.001Z,73.78
2019-05-05T21:18:31.558Z,73.90
2019-05-05T21:21:01.810Z,73.85
2019-05-05T21:23:34.111Z,73.85
2019-05-05T21:26:06.930Z,74.11
2019-05-05T21:28:35.499Z,74.22
2019-05-05T21:31:04.859Z,74.12
2019-05-05T21:33:34.791Z,74.34
2019-05-05T21:36:04.233Z,74.59
2019-05-05T21:38:35.380Z,74.50
2019-05-05T21:41:04.260Z,74.59
2019-05-05T21:43:32.978Z,75.07
2019-05-05T21:46:01.545Z,75.07
2019-05-05T21:48:30.133Z,75.28
2019-05-05T21:51:04.690Z,75.56
2019-05-05T21:53:51.234Z,75.99
2019-05-05T21:56:24.885Z,75.90
2019-05-05T21:58:54.428Z,76.45
2019-05-05T22:01:27.075Z,76.73
2019-05-05T22:03:53.854Z,76.73
2019-05-05T22:06:24.149Z,77.07
2019-05-05T22:08:53.659Z,76.89
2019-05-05T22:11:24.256Z,77.34
2019-05-05T22:13:54.042Z,77.48
2019-05-05T22:16:22.883Z,77.61
2019-05-05T22:18:54.038Z,77.96
2019-05-05T22:21:24.453Z,77.85
2019-05-05T22:24:13.121Z,78.10
2019-05-05T22:26:44.325Z,78.34
2019-05-05T22:29:14.073Z,78.39
2019-05-05T22:31:42.836Z,78.53
2019-05-05T22:34:11.435Z,78.85
2019-05-05T22:36:40.210Z,78.87
2019-05-05T22:39:11.633Z,78.99
2019-05-05T22:41:40.211Z,79.27
2019-05-05T22:44:08.779Z,79.50
2019-05-05T22:46:37.420Z,79.73
2019-05-05T22:49:06.043Z,79.94
2019-05-05T22:51:34.608Z,80.16
2019-05-05T22:54:03.903Z,80.47
2019-05-05T22:56:33.769Z,80.74
2019-05-05T22:59:04.349Z,81.25
2019-05-05T23:01:33.021Z,81.53
2019-05-05T23:04:03.738Z,82.07
2019-05-05T23:06:34.039Z,82.21
2019-05-05T23:09:04.101Z,82.48
2019-05-05T23:11:32.782Z,82.47
2019-05-05T23:14:19.217Z,82.30
2019-05-05T23:16:49.461Z,82.34
2019-05-05T23:19:18.199Z,82.23
2019-05-05T23:21:48.443Z,82.34
2019-05-05T23:24:23.658Z,82.29
2019-05-05T23:26:54.562Z,82.50
2019-05-05T23:29:24.270Z,82.55
2019-05-05T23:31:53.909Z,82.70
2019-05-05T23:34:24.260Z,82.95
2019-05-05T23:36:53.581Z,83.18
2019-05-05T23:39:24.159Z,83.29
2019-05-05T23:41:54.486Z,83.66
2019-05-05T23:44:23.807Z,83.98
2019-05-05T23:46:53.773Z,83.76
2019-05-05T23:49:24.173Z,83.70
2019-05-05T23:51:53.998Z,83.68
2019-05-05T23:54:24.649Z,83.56
2019-05-05T23:56:53.792Z,83.47
2019-05-05T23:59:24.127Z,83.45
